Time;durP1;ratioP1;P1;durP2;ratioP2;P2;SDS_P1;SDS_P2;PMS_P1;PMS_P2;Temp;Humidity;BMP_temperature;BMP_pressure;BME280_temperature;BME280_humidity;BME280_pressure;Samples;Min_cycle;Max_cycle;Signal;HPM_P1;HPM_P2
2023/05/07 00:01:59;;;;;;;8.73;4.35;;;14.10;99.90;;;;;;4897133;29;20056;-75
2023/05/07 00:04:25;;;;;;;7.03;4.00;;;14.00;99.90;;;;;;4897235;29;20056;-72
2023/05/07 00:06:51;;;;;;;8.50;4.53;;;13.90;99.90;;;;;;4897455;29;20040;-73
2023/05/07 00:09:17;;;;;;;8.48;4.32;;;13.90;99.90;;;;;;4897076;29;20035;-75
2023/05/07 00:11:42;;;;;;;10.48;4.05;;;14.00;99.90;;;;;;4896223;29;20388;-74
2023/05/07 00:14:08;;;;;;;6.22;4.05;;;14.00;99.90;;;;;;4897029;29;20392;-77
2023/05/07 00:16:37;;;;;;;7.90;3.33;;;14.00;99.90;;;;;;4897100;29;20072;-76
2023/05/07 00:19:03;;;;;;;10.45;4.72;;;14.00;99.90;;;;;;4897153;29;20489;-76
2023/05/07 00:21:30;;;;;;;7.63;4.35;;;14.00;99.90;;;;;;4897418;29;20433;-76
2023/05/07 00:23:56;;;;;;;7.88;4.22;;;14.00;99.90;;;;;;4896966;29;20020;-77
2023/05/07 00:26:22;;;;;;;7.85;4.20;;;13.90;99.90;;;;;;4896819;29;20203;-76
2023/05/07 00:28:49;;;;;;;10.35;4.28;;;13.80;99.90;;;;;;4878297;29;20060;-77
2023/05/07 00:31:15;;;;;;;7.65;4.25;;;13.70;99.90;;;;;;4879973;29;20481;-76
2023/05/07 00:33:41;;;;;;;8.93;4.32;;;13.70;99.90;;;;;;4896167;29;20141;-77
2023/05/07 00:36:07;;;;;;;9.50;4.88;;;13.70;99.90;;;;;;4896510;29;20067;-77
2023/05/07 00:38:33;;;;;;;6.95;4.07;;;13.70;99.90;;;;;;4896681;29;20057;-75
2023/05/07 00:40:59;;;;;;;10.05;4.20;;;13.60;99.90;;;;;;4880051;29;20041;-76
2023/05/07 00:43:25;;;;;;;6.85;4.50;;;13.60;99.90;;;;;;4877181;29;20041;-72
2023/05/07 00:45:51;;;;;;;8.10;4.35;;;13.60;99.90;;;;;;4895577;29;20028;-77
2023/05/07 00:48:17;;;;;;;6.20;3.72;;;13.60;99.90;;;;;;4881908;29;20025;-75
2023/05/07 00:50:44;;;;;;;7.53;4.30;;;13.60;99.90;;;;;;4878388;29;20524;-72
2023/05/07 00:53:10;;;;;;;9.52;4.75;;;13.40;99.90;;;;;;4877667;29;20025;-73
2023/05/07 00:55:36;;;;;;;8.85;4.47;;;13.40;99.90;;;;;;4861673;29;20433;-76
2023/05/07 00:58:02;;;;;;;9.80;4.38;;;13.40;99.90;;;;;;4859834;29;20116;-75
2023/05/07 01:00:28;;;;;;;7.63;4.22;;;13.40;99.90;;;;;;4876969;29;20100;-76
2023/05/07 01:02:55;;;;;;;8.73;4.43;;;13.40;99.90;;;;;;4883718;29;20029;-77
2023/05/07 01:05:23;;;;;;;6.95;4.43;;;13.40;99.90;;;;;;4876600;29;20040;-77
2023/05/07 01:07:50;;;;;;;8.35;4.50;;;13.40;99.90;;;;;;4880557;29;20025;-76
2023/05/07 01:10:17;;;;;;;9.48;4.45;;;13.40;99.90;;;;;;4876699;29;20072;-74
2023/05/07 01:12:44;;;;;;;8.85;4.55;;;13.40;99.90;;;;;;4862076;29;20047;-73
2023/05/07 01:15:10;;;;;;;8.20;4.25;;;13.40;99.90;;;;;;4878079;29;20048;-77
2023/05/07 01:17:41;;;;;;;7.68;3.97;;;13.30;99.90;;;;;;4863598;29;20044;-76
2023/05/07 01:20:12;;;;;;;10.23;5.22;;;13.20;99.90;;;;;;4881740;29;20061;-73
2023/05/07 01:22:38;;;;;;;7.68;4.47;;;13.20;99.90;;;;;;4863525;29;20032;-74
2023/05/07 01:25:09;;;;;;;10.52;5.13;;;13.10;99.90;;;;;;4863226;29;20528;-76
2023/05/07 01:27:41;;;;;;;8.90;4.45;;;13.10;99.90;;;;;;4863379;29;20386;-73
2023/05/07 01:30:07;;;;;;;9.50;5.00;;;13.00;99.90;;;;;;4879920;29;20029;-76
2023/05/07 01:32:56;;;;;;;10.18;4.60;;;13.00;99.90;;;;;;4883028;29;20027;-73
2023/05/07 01:35:26;;;;;;;10.25;5.47;;;12.90;99.90;;;;;;4840664;29;20062;-77
2023/05/07 01:37:54;;;;;;;7.47;4.20;;;12.90;99.90;;;;;;4824369;29;20058;-72
2023/05/07 01:40:20;;;;;;;10.82;5.15;;;12.80;99.90;;;;;;4824790;29;20087;-76
2023/05/07 01:42:46;;;;;;;9.23;5.05;;;12.80;99.90;;;;;;4824942;29;20078;-75
2023/05/07 01:45:12;;;;;;;9.00;4.85;;;12.60;99.90;;;;;;4840514;29;20034;-76
2023/05/07 01:47:38;;;;;;;10.80;5.18;;;12.60;99.90;;;;;;4840693;29;20034;-73
2023/05/07 01:50:10;;;;;;;10.18;5.28;;;12.60;99.90;;;;;;4836449;29;20033;-74
2023/05/07 01:52:38;;;;;;;9.77;5.63;;;12.60;99.90;;;;;;4824696;29;20053;-72
2023/05/07 01:55:05;;;;;;;7.55;4.32;;;12.50;99.90;;;;;;4823481;29;20022;-75
2023/05/07 01:57:31;;;;;;;10.57;5.25;;;12.50;99.90;;;;;;4840594;29;20041;-74
2023/05/07 01:59:57;;;;;;;11.23;5.68;;;12.50;99.90;;;;;;4821842;29;20035;-77
2023/05/07 02:02:23;;;;;;;10.32;5.05;;;12.40;99.90;;;;;;4839862;29;20063;-75
2023/05/07 02:04:50;;;;;;;15.43;5.60;;;12.40;99.90;;;;;;4823239;29;20031;-76
2023/05/07 02:07:17;;;;;;;11.35;6.13;;;12.40;99.90;;;;;;4824249;29;20082;-77
2023/05/07 02:09:44;;;;;;;9.95;5.20;;;12.40;99.90;;;;;;4828456;29;20077;-76
2023/05/07 02:12:11;;;;;;;11.30;5.72;;;12.40;99.90;;;;;;4843287;29;20070;-78
2023/05/07 02:14:37;;;;;;;17.98;6.03;;;12.40;99.90;;;;;;4879305;29;20389;-77
2023/05/07 02:17:02;;;;;;;10.98;6.50;;;12.40;99.90;;;;;;4880540;29;20037;-75
2023/05/07 02:19:28;;;;;;;13.68;5.78;;;12.30;99.90;;;;;;4862490;29;20080;-78
2023/05/07 02:21:55;;;;;;;13.43;6.63;;;12.30;99.90;;;;;;4879086;29;20036;-77
2023/05/07 02:24:21;;;;;;;13.93;6.05;;;12.30;99.90;;;;;;4862502;29;20033;-77
2023/05/07 02:26:46;;;;;;;17.80;6.10;;;12.30;99.90;;;;;;4862298;29;20116;-77
2023/05/07 02:29:12;;;;;;;16.75;5.90;;;12.30;99.90;;;;;;4862106;29;20032;-76
2023/05/07 02:31:39;;;;;;;16.58;5.82;;;12.30;99.90;;;;;;4867668;29;20531;-77
2023/05/07 02:34:04;;;;;;;13.25;7.28;;;12.20;99.90;;;;;;4878872;29;20057;-74
2023/05/07 02:36:30;;;;;;;17.50;6.25;;;12.20;99.90;;;;;;4862385;29;20029;-77
2023/05/07 02:39:05;;;;;;;16.83;6.47;;;12.10;99.90;;;;;;4861897;29;20136;-73
2023/05/07 02:41:31;;;;;;;14.00;6.65;;;12.10;99.90;;;;;;4862140;29;20485;-74
2023/05/07 02:43:57;;;;;;;19.80;6.50;;;12.00;99.90;;;;;;4861829;29;20044;-74
2023/05/07 02:46:22;;;;;;;11.90;5.93;;;11.90;99.90;;;;;;4878821;29;20032;-72
2023/05/07 02:48:56;;;;;;;14.15;6.03;;;11.90;99.90;;;;;;4865750;29;20430;-77
2023/05/07 02:51:22;;;;;;;15.93;5.82;;;12.00;99.90;;;;;;4861675;29;20041;-74
2023/05/07 02:53:49;;;;;;;15.80;6.25;;;12.00;99.90;;;;;;4861877;29;20413;-77
2023/05/07 02:56:15;;;;;;;14.50;6.25;;;12.00;99.90;;;;;;4861823;29;20029;-76
2023/05/07 02:58:44;;;;;;;15.68;6.25;;;12.10;99.90;;;;;;4878541;29;20083;-78
2023/05/07 03:01:12;;;;;;;13.50;5.75;;;12.10;99.90;;;;;;4861463;29;20029;-75
2023/05/07 03:04:04;;;;;;;12.73;6.32;;;12.10;99.90;;;;;;4876543;29;20393;-77
2023/05/07 03:06:30;;;;;;;13.43;6.35;;;12.00;99.90;;;;;;4861543;29;20052;-75
2023/05/07 03:08:55;;;;;;;12.68;7.40;;;11.90;99.90;;;;;;4877898;29;20029;-74
2023/05/07 03:11:21;;;;;;;15.27;6.45;;;11.80;99.90;;;;;;4861414;29;20049;-72
2023/05/07 03:13:48;;;;;;;17.50;6.75;;;11.80;99.90;;;;;;4861488;29;20419;-76
2023/05/07 03:16:15;;;;;;;12.27;5.88;;;11.80;99.90;;;;;;4881982;29;20037;-74
2023/05/07 03:18:41;;;;;;;10.50;5.75;;;11.80;99.90;;;;;;4877903;29;20033;-77
2023/05/07 03:21:07;;;;;;;12.82;6.22;;;11.80;99.90;;;;;;4861347;29;20394;-75
2023/05/07 03:23:33;;;;;;;8.88;5.45;;;11.90;99.90;;;;;;4860890;29;20181;-73
2023/05/07 03:25:58;;;;;;;10.77;6.07;;;11.80;99.90;;;;;;4877806;29;20100;-76
2023/05/07 03:28:25;;;;;;;9.43;5.63;;;11.90;99.90;;;;;;4861239;29;20511;-72
2023/05/07 03:30:56;;;;;;;12.90;6.32;;;11.90;99.90;;;;;;4862956;29;20186;-73
2023/05/07 03:33:22;;;;;;;9.98;5.60;;;11.80;99.90;;;;;;4878061;29;20536;-77
2023/05/07 03:35:48;;;;;;;11.63;6.22;;;11.70;99.90;;;;;;4860750;29;20036;-78
2023/05/07 03:38:19;;;;;;;10.30;5.45;;;11.90;99.90;;;;;;4860833;29;20516;-78
2023/05/07 03:40:46;;;;;;;11.80;6.05;;;12.20;99.90;;;;;;4860988;29;20037;-78
2023/05/07 03:43:12;;;;;;;9.57;5.15;;;12.80;99.90;;;;;;4860586;29;20064;-74
2023/05/07 03:45:43;;;;;;;11.15;5.60;;;13.50;99.90;;;;;;4861042;29;20033;-73
2023/05/07 03:48:14;;;;;;;7.63;4.75;;;14.10;99.90;;;;;;4860940;29;20033;-77
2023/05/07 03:50:40;;;;;;;10.13;4.80;;;14.50;99.90;;;;;;4860846;29;20677;-76
2023/05/07 03:53:06;;;;;;;8.02;4.63;;;15.10;99.90;;;;;;4877433;29;20032;-72
2023/05/07 03:55:37;;;;;;;8.55;5.30;;;15.30;99.90;;;;;;4861179;29;20406;-77
2023/05/07 03:58:02;;;;;;;9.93;4.95;;;15.80;99.90;;;;;;4877302;29;20520;-74
2023/05/07 04:00:33;;;;;;;11.80;4.88;;;16.30;99.90;;;;;;4860773;29;20024;-76
2023/05/07 04:03:03;;;;;;;8.60;4.25;;;16.80;99.90;;;;;;4877748;29;20108;-77
2023/05/07 04:05:31;;;;;;;11.10;4.68;;;16.90;99.90;;;;;;4860408;29;20757;-77
2023/05/07 04:08:01;;;;;;;5.65;3.92;;;17.40;99.90;;;;;;4877306;29;20037;-76
2023/05/07 04:10:34;;;;;;;6.50;4.63;;;17.40;99.90;;;;;;4860302;29;20041;-77
2023/05/07 04:13:05;;;;;;;7.80;4.55;;;17.70;99.70;;;;;;4864145;29;20124;-75
2023/05/07 04:15:31;;;;;;;10.82;4.72;;;17.80;98.70;;;;;;4877501;29;20064;-73
2023/05/07 04:17:57;;;;;;;11.63;4.75;;;18.10;98.60;;;;;;4877319;29;20770;-74
2023/05/07 04:20:24;;;;;;;8.80;4.60;;;18.90;98.50;;;;;;4860568;29;20033;-72
2023/05/07 04:22:57;;;;;;;7.25;4.30;;;19.40;97.20;;;;;;4860455;29;20036;-77
2023/05/07 04:25:26;;;;;;;7.82;4.53;;;20.10;95.90;;;;;;4860482;29;20062;-73
2023/05/07 04:27:53;;;;;;;5.80;4.60;;;20.50;95.00;;;;;;4864278;29;20029;-77
2023/05/07 04:30:19;;;;;;;11.07;6.22;;;20.70;94.30;;;;;;4877306;29;20045;-77
2023/05/07 04:32:45;;;;;;;10.45;7.00;;;20.90;93.50;;;;;;4878412;29;20032;-78
2023/05/07 04:35:11;;;;;;;9.32;5.95;;;21.40;93.20;;;;;;4859886;29;20123;-72
2023/05/07 04:37:38;;;;;;;6.72;4.90;;;21.30;93.30;;;;;;4864401;29;20061;-73
2023/05/07 04:40:06;;;;;;;8.43;4.50;;;21.60;93.50;;;;;;4844881;29;20033;-74
2023/05/07 04:42:33;;;;;;;9.18;5.40;;;21.80;91.80;;;;;;4860271;29;20053;-76
2023/05/07 04:45:02;;;;;;;7.93;4.80;;;22.00;91.40;;;;;;4859973;29;20120;-76
2023/05/07 04:47:29;;;;;;;9.00;5.32;;;22.20;91.80;;;;;;4860132;29;20116;-75
2023/05/07 04:49:55;;;;;;;7.63;5.18;;;22.30;90.10;;;;;;4859974;29;20484;-73
2023/05/07 04:52:21;;;;;;;10.90;6.03;;;21.30;90.60;;;;;;4859836;29;20037;-76
2023/05/07 04:54:47;;;;;;;7.78;4.88;;;21.60;90.30;;;;;;4867878;29;20033;-76
2023/05/07 04:57:14;;;;;;;9.35;4.47;;;21.90;90.50;;;;;;4863801;29;20485;-76
2023/05/07 04:59:41;;;;;;;9.23;5.45;;;22.30;90.10;;;;;;4864026;29;20061;-75
2023/05/07 05:02:07;;;;;;;7.85;4.85;;;21.60;90.10;;;;;;4863708;29;20481;-76
2023/05/07 05:04:33;;;;;;;10.43;6.00;;;20.40;90.00;;;;;;4863695;29;20020;-75
2023/05/07 05:06:59;;;;;;;17.58;10.02;;;19.60;91.30;;;;;;4863521;29;20486;-75
2023/05/07 05:09:26;;;;;;;16.33;6.57;;;18.10;92.20;;;;;;4863543;29;20036;-75
2023/05/07 05:11:52;;;;;;;10.20;5.65;;;17.40;94.00;;;;;;4880324;29;20548;-73
2023/05/07 05:14:17;;;;;;;8.95;4.97;;;17.50;95.10;;;;;;4880349;29;20117;-73
2023/05/07 05:16:43;;;;;;;8.48;5.03;;;17.60;95.30;;;;;;4883793;29;20091;-74
2023/05/07 05:19:09;;;;;;;9.68;5.80;;;17.70;95.60;;;;;;4863396;29;20033;-73
2023/05/07 05:21:38;;;;;;;11.57;5.85;;;18.00;95.10;;;;;;4866282;29;20036;-73
2023/05/07 05:24:07;;;;;;;11.48;6.15;;;18.10;95.50;;;;;;4863265;29;20021;-76
2023/05/07 05:26:34;;;;;;;9.60;4.90;;;18.20;95.70;;;;;;4878709;29;20033;-74
2023/05/07 05:29:00;;;;;;;11.20;5.68;;;18.40;95.80;;;;;;4863146;29;20037;-72
2023/05/07 05:31:28;;;;;;;10.02;6.03;;;18.30;96.10;;;;;;4864373;29;20453;-75
2023/05/07 05:33:54;;;;;;;11.32;5.43;;;18.50;95.70;;;;;;4862955;29;20029;-75
2023/05/07 05:36:20;;;;;;;10.38;5.78;;;18.70;95.80;;;;;;4863175;29;20033;-73
2023/05/07 05:38:47;;;;;;;9.43;5.13;;;18.70;95.30;;;;;;4859553;29;20450;-76
2023/05/07 05:41:13;;;;;;;10.93;5.47;;;18.90;94.80;;;;;;4860010;29;20037;-72
2023/05/07 05:43:39;;;;;;;10.05;6.00;;;18.80;94.50;;;;;;4860327;29;20398;-76
2023/05/07 05:46:06;;;;;;;11.50;6.15;;;18.60;94.40;;;;;;4859697;29;20116;-74
2023/05/07 05:48:32;;;;;;;11.90;6.35;;;18.80;94.20;;;;;;4866758;29;20034;-73
2023/05/07 05:51:00;;;;;;;11.10;6.15;;;18.80;95.30;;;;;;4858933;29;20470;-73
2023/05/07 05:53:26;;;;;;;13.85;5.82;;;19.10;95.10;;;;;;4863022;29;20029;-74
2023/05/07 05:55:53;;;;;;;12.45;6.68;;;19.20;94.50;;;;;;4861520;29;20036;-73
2023/05/07 05:58:18;;;;;;;13.23;6.43;;;19.30;95.40;;;;;;4871373;29;20033;-76
2023/05/07 06:00:52;;;;;;;14.43;6.38;;;19.50;96.30;;;;;;4866970;29;20053;-74
2023/05/07 06:03:19;;;;;;;11.40;6.00;;;19.60;96.50;;;;;;4862840;29;20113;-72
2023/05/07 06:05:45;;;;;;;13.82;7.60;;;19.70;95.00;;;;;;4860547;29;20069;-72
2023/05/07 06:08:11;;;;;;;12.48;5.55;;;20.00;95.10;;;;;;4860663;29;20078;-75
2023/05/07 06:10:37;;;;;;;12.50;6.15;;;20.20;94.40;;;;;;4860639;29;20057;-73
2023/05/07 06:13:06;;;;;;;11.70;6.65;;;20.40;93.90;;;;;;4873115;29;20041;-75
2023/05/07 06:15:33;;;;;;;11.00;6.28;;;20.40;94.60;;;;;;4884679;29;20025;-73
2023/05/07 06:18:04;;;;;;;15.00;6.65;;;20.60;93.90;;;;;;4895409;29;20037;-71
2023/05/07 06:20:30;;;;;;;11.70;5.97;;;20.50;94.00;;;;;;4890648;29;20372;-71
2023/05/07 06:22:58;;;;;;;11.05;6.70;;;20.80;93.90;;;;;;4878444;29;20068;-72
2023/05/07 06:25:24;;;;;;;11.98;6.18;;;20.90;92.70;;;;;;4888410;29;20025;-74
2023/05/07 06:27:50;;;;;;;12.15;6.47;;;21.20;92.90;;;;;;4895880;29;20119;-75
2023/05/07 06:30:16;;;;;;;14.55;6.30;;;20.90;92.30;;;;;;4879827;29;20089;-71
2023/05/07 06:32:41;;;;;;;11.70;6.40;;;21.10;91.60;;;;;;4863799;29;20041;-71
2023/05/07 06:35:08;;;;;;;14.40;6.90;;;21.20;91.80;;;;;;4860303;29;20144;-72
2023/05/07 06:37:38;;;;;;;12.20;6.90;;;21.00;92.00;;;;;;4861845;29;20516;-71
2023/05/07 06:40:06;;;;;;;14.73;6.25;;;20.90;91.10;;;;;;4876997;29;20041;-71
2023/05/07 06:42:35;;;;;;;11.45;5.72;;;20.90;92.40;;;;;;4881796;29;20025;-70
2023/05/07 06:45:20;;;;;;;12.48;5.55;;;21.10;91.70;;;;;;4871667;29;20397;-70
2023/05/07 06:47:45;;;;;;;11.35;5.82;;;21.30;91.00;;;;;;4882311;29;20043;-72
2023/05/07 06:50:12;;;;;;;10.38;5.03;;;21.60;91.20;;;;;;4893967;29;20021;-75
2023/05/07 06:52:38;;;;;;;9.60;5.00;;;21.60;91.30;;;;;;4893988;29;20043;-74
2023/05/07 06:55:06;;;;;;;9.25;4.35;;;21.70;90.70;;;;;;4889643;29;20392;-72
2023/05/07 06:57:32;;;;;;;9.07;4.90;;;21.70;90.00;;;;;;4888018;29;20037;-74
2023/05/07 06:59:57;;;;;;;9.68;4.90;;;22.10;90.60;;;;;;4892355;29;20489;-75
2023/05/07 07:02:23;;;;;;;10.70;4.88;;;22.20;90.50;;;;;;4893477;29;20433;-74
2023/05/07 07:04:50;;;;;;;11.52;5.05;;;22.20;89.10;;;;;;4874565;29;20476;-74
2023/05/07 07:07:16;;;;;;;12.95;5.20;;;22.10;88.00;;;;;;4885118;29;20044;-71
2023/05/07 07:09:45;;;;;;;12.15;5.20;;;22.30;90.20;;;;;;4870393;29;20060;-75
2023/05/07 07:12:14;;;;;;;11.38;5.82;;;22.30;90.10;;;;;;4879458;29;20040;-75
2023/05/07 07:14:40;;;;;;;9.63;5.38;;;22.40;89.20;;;;;;4881242;29;20111;-72
2023/05/07 07:17:12;;;;;;;11.80;5.10;;;22.40;89.20;;;;;;4880900;29;20503;-73
2023/05/07 07:19:43;;;;;;;13.60;5.28;;;22.20;89.80;;;;;;4881304;29;20032;-74
2023/05/07 07:22:10;;;;;;;;;;;22.60;90.10;;;;;;4874787;29;20032;-74
2023/05/07 07:24:43;;;;;;;14.23;6.55;;;22.70;90.10;;;;;;4872645;29;20360;-75
2023/05/07 07:27:11;;;;;;;11.45;5.95;;;22.50;90.50;;;;;;4877897;29;20106;-76
2023/05/07 07:29:46;;;;;;;13.25;6.70;;;22.00;91.00;;;;;;4878344;29;20076;-76
2023/05/07 07:32:12;;;;;;;9.48;4.97;;;22.30;89.70;;;;;;4878786;29;20093;-73
2023/05/07 07:34:42;;;;;;;11.23;4.70;;;22.30;89.00;;;;;;4863114;29;20029;-74
2023/05/07 07:37:09;;;;;;;8.30;4.70;;;22.50;90.40;;;;;;4880357;29;20036;-73
2023/05/07 07:39:37;;;;;;;8.13;4.93;;;22.60;90.80;;;;;;4876905;29;20136;-74
2023/05/07 07:42:04;;;;;;;8.65;4.35;;;22.50;91.20;;;;;;4877297;29;20068;-74
2023/05/07 07:44:30;;;;;;;7.53;3.92;;;22.60;88.40;;;;;;4877662;29;20127;-72
2023/05/07 07:47:01;;;;;;;10.40;4.15;;;22.50;91.40;;;;;;4869876;29;20393;-75
2023/05/07 07:49:28;;;;;;;9.20;4.10;;;22.90;90.40;;;;;;4880653;29;20060;-76
2023/05/07 07:51:58;;;;;;;8.55;4.53;;;22.90;89.90;;;;;;4880750;29;20476;-73
2023/05/07 07:54:24;;;;;;;8.60;3.95;;;23.10;89.20;;;;;;4880706;29;20036;-75
2023/05/07 07:56:50;;;;;;;7.25;3.92;;;23.20;88.90;;;;;;4896555;29;20039;-75
2023/05/07 07:59:18;;;;;;;7.82;4.40;;;23.50;90.50;;;;;;4881041;29;20025;-73
2023/05/07 08:01:45;;;;;;;9.75;4.40;;;23.70;87.50;;;;;;4871895;29;20535;-75
2023/05/07 08:04:17;;;;;;;6.20;4.00;;;23.40;88.10;;;;;;4876279;29;20043;-72
2023/05/07 08:06:43;;;;;;;13.40;4.25;;;23.60;87.90;;;;;;4880511;29;20032;-75
2023/05/07 08:09:10;;;;;;;6.22;3.55;;;23.70;87.60;;;;;;4880212;29;20058;-72
2023/05/07 08:11:38;;;;;;;6.35;4.00;;;23.60;87.20;;;;;;4868892;29;20045;-72
2023/05/07 08:14:08;;;;;;;11.70;4.38;;;23.70;87.30;;;;;;4867169;29;20029;-76
2023/05/07 08:16:37;;;;;;;7.63;4.32;;;23.90;90.70;;;;;;4878697;29;20037;-73
2023/05/07 08:19:03;;;;;;;6.57;4.45;;;23.90;87.40;;;;;;4880252;29;20032;-74
2023/05/07 08:21:32;;;;;;;7.78;4.30;;;24.10;87.40;;;;;;4880185;29;20497;-74
2023/05/07 08:24:05;;;;;;;5.15;3.53;;;23.90;87.00;;;;;;4880209;29;20089;-73
2023/05/07 08:26:30;;;;;;;16.23;4.10;;;24.00;89.70;;;;;;4878670;29;20035;-75
2023/05/07 08:28:56;;;;;;;8.48;4.15;;;24.00;86.70;;;;;;4896377;29;20107;-74
2023/05/07 08:31:22;;;;;;;7.35;4.15;;;23.80;86.80;;;;;;4896521;29;20052;-73
2023/05/07 08:33:48;;;;;;;6.13;4.18;;;24.00;88.60;;;;;;4880395;29;20044;-76
2023/05/07 08:36:14;;;;;;;6.05;3.63;;;24.00;89.70;;;;;;4896558;29;20445;-73
2023/05/07 08:38:45;;;;;;;6.60;3.72;;;24.30;87.50;;;;;;4892209;29;20047;-74
2023/05/07 08:41:11;;;;;;;10.23;4.35;;;24.10;89.00;;;;;;4889065;29;20492;-71
2023/05/07 08:43:40;;;;;;;8.63;4.05;;;24.40;88.40;;;;;;4868252;29;20084;-75
2023/05/07 08:46:09;;;;;;;8.07;4.63;;;24.00;89.30;;;;;;4886886;29;20054;-73
2023/05/07 08:48:38;;;;;;;9.85;4.32;;;23.80;87.80;;;;;;4886351;29;20499;-71
2023/05/07 08:51:12;;;;;;;8.43;4.45;;;24.10;87.30;;;;;;4906896;29;20036;-73
2023/05/07 08:53:40;;;;;;;6.25;3.60;;;24.30;85.90;;;;;;4892079;29;20044;-71
2023/05/07 08:56:09;;;;;;;7.88;3.72;;;24.30;85.70;;;;;;4890261;29;20028;-72
2023/05/07 08:58:35;;;;;;;4.93;3.53;;;24.40;88.70;;;;;;4886052;29;20028;-75
2023/05/07 09:01:14;;;;;;;7.85;3.38;;;24.30;87.60;;;;;;4898834;29;20067;-74
2023/05/07 09:03:44;;;;;;;7.40;3.03;;;24.20;86.00;;;;;;4892664;29;20040;-75
2023/05/07 09:06:10;;;;;;;7.22;3.20;;;24.50;89.20;;;;;;4896554;29;20040;-75
2023/05/07 09:08:36;;;;;;;7.80;3.90;;;24.50;86.90;;;;;;4891767;29;20070;-75
2023/05/07 09:11:04;;;;;;;4.43;3.20;;;24.40;86.90;;;;;;4886256;29;20056;-75
2023/05/07 09:13:30;;;;;;;4.97;3.00;;;24.60;89.00;;;;;;4897052;29;20396;-74
2023/05/07 09:16:06;;;;;;;8.07;3.65;;;24.60;86.00;;;;;;4897535;29;20040;-75
2023/05/07 09:18:32;;;;;;;6.50;3.35;;;24.40;87.00;;;;;;4897491;29;20044;-74
2023/05/07 09:20:58;;;;;;;4.38;3.20;;;24.80;86.70;;;;;;4865093;29;20084;-75
2023/05/07 09:23:27;;;;;;;6.47;3.00;;;24.80;85.00;;;;;;4886934;29;20040;-72
2023/05/07 09:26:11;;;;;;;8.48;3.47;;;24.80;85.70;;;;;;4894453;29;20036;-74
2023/05/07 09:28:41;;;;;;;5.78;3.33;;;24.80;85.60;;;;;;4886113;29;20025;-75
2023/05/07 09:31:10;;;;;;;5.40;3.25;;;25.00;84.00;;;;;;4877788;29;20416;-71
2023/05/07 09:33:39;;;;;;;12.18;4.10;;;25.00;86.50;;;;;;4865737;29;20028;-75
2023/05/07 09:36:13;;;;;;;4.80;3.03;;;24.80;83.50;;;;;;4859715;29;20031;-75
2023/05/07 09:38:41;;;;;;;5.88;3.15;;;25.00;85.40;;;;;;4872075;29;20045;-76
2023/05/07 09:41:10;;;;;;;5.28;3.20;;;25.00;82.60;;;;;;4866456;29;20033;-75
2023/05/07 09:43:54;;;;;;;4.93;3.40;;;25.10;83.00;;;;;;4858899;29;20041;-72
2023/05/07 09:46:29;;;;;;;5.90;3.40;;;25.10;84.60;;;;;;4866173;29;20033;-72
2023/05/07 09:49:13;;;;;;;6.95;3.38;;;25.30;84.90;;;;;;4871688;29;20048;-73
2023/05/07 09:51:50;;;;;;;8.40;4.28;;;25.20;84.20;;;;;;4882753;29;20036;-73
2023/05/07 09:54:18;;;;;;;7.22;3.83;;;24.90;83.70;;;;;;4871436;29;20514;-77
2023/05/07 09:56:48;;;;;;;8.30;4.18;;;24.80;85.00;;;;;;4882688;29;20029;-76
2023/05/07 09:59:16;;;;;;;5.32;3.60;;;24.80;84.60;;;;;;4883030;29;20177;-74
2023/05/07 10:01:44;;;;;;;6.97;3.83;;;25.00;84.10;;;;;;4882440;29;20068;-76
2023/05/07 10:04:15;;;;;;;5.68;3.20;;;24.70;82.00;;;;;;4881878;29;20102;-73
2023/05/07 10:06:44;;;;;;;4.30;2.83;;;24.80;83.40;;;;;;4882462;29;20072;-74
2023/05/07 10:09:12;;;;;;;10.73;3.42;;;24.70;83.10;;;;;;4882275;29;20031;-74
2023/05/07 10:11:48;;;;;;;6.40;3.40;;;24.80;83.90;;;;;;4882706;29;20045;-75
2023/05/07 10:14:21;;;;;;;6.10;3.33;;;24.50;82.40;;;;;;4882311;29;20041;-76
2023/05/07 10:16:48;;;;;;;6.40;3.25;;;25.00;83.60;;;;;;4899570;29;20032;-71
2023/05/07 10:19:17;;;;;;;5.53;3.13;;;25.10;83.80;;;;;;4881727;29;20021;-77
2023/05/07 10:21:59;;;;;;;7.28;3.25;;;25.20;81.10;;;;;;4879413;29;20511;-72
2023/05/07 10:24:31;;;;;;;4.50;3.00;;;25.00;81.00;;;;;;4882148;29;20033;-76
2023/05/07 10:27:11;;;;;;;3.20;1.80;;;25.00;79.60;;;;;;4882309;29;20044;-73
2023/05/07 10:29:50;;;;;;;8.50;2.95;;;24.90;73.50;;;;;;4881939;29;20036;-76
2023/05/07 10:32:16;;;;;;;3.97;2.40;;;25.00;76.40;;;;;;4881479;29;20055;-71
2023/05/07 10:34:48;;;;;;;3.75;2.40;;;25.00;76.90;;;;;;4882067;29;20052;-75
2023/05/07 10:37:16;;;;;;;4.90;3.05;;;25.20;76.10;;;;;;4882251;29;20029;-73
2023/05/07 10:39:43;;;;;;;6.05;2.70;;;25.00;76.40;;;;;;4873763;29;20061;-74
2023/05/07 10:42:11;;;;;;;5.85;2.60;;;25.00;76.30;;;;;;4895337;29;20033;-75
2023/05/07 10:44:39;;;;;;;5.22;2.60;;;24.90;79.10;;;;;;4872548;29;20112;-72
2023/05/07 10:47:19;;;;;;;7.87;2.80;;;25.10;76.70;;;;;;4881746;29;20105;-76
2023/05/07 10:49:48;;;;;;;3.80;2.88;;;24.90;77.00;;;;;;4897565;29;20401;-75
2023/05/07 10:52:24;;;;;;;5.43;2.90;;;25.20;78.80;;;;;;4880964;29;20508;-74
2023/05/07 10:55:18;;;;;;;6.28;3.03;;;25.20;76.60;;;;;;4898501;29;20080;-74
2023/05/07 10:58:28;;;;;;;7.15;3.35;;;25.10;77.80;;;;;;4865724;29;20441;-73
2023/05/07 11:01:21;;;;;;;4.88;2.70;;;25.30;77.20;;;;;;4824693;29;20038;-76
2023/05/07 11:04:15;;;;;;;8.27;2.75;;;24.90;76.20;;;;;;4822457;29;20034;-72
2023/05/07 11:07:25;;;;;;;4.82;2.95;;;25.00;76.80;;;;;;4845252;29;20029;-76
2023/05/07 11:10:04;;;;;;;8.50;2.78;;;25.20;78.90;;;;;;4829048;29;20417;-77
2023/05/07 11:12:59;;;;;;;4.93;3.30;;;25.30;78.10;;;;;;4774342;30;20058;-76
2023/05/07 11:15:41;;;;;;;6.20;2.65;;;25.30;74.70;;;;;;4785918;30;20035;-76
2023/05/07 11:18:24;;;;;;;4.30;2.72;;;25.50;78.00;;;;;;4768141;30;20039;-75
2023/05/07 11:20:54;;;;;;;4.68;2.63;;;25.20;75.20;;;;;;4783295;30;20036;-75
2023/05/07 11:23:37;;;;;;;20.45;2.65;;;25.20;75.90;;;;;;4785273;30;20471;-71
2023/05/07 11:26:24;;;;;;;7.05;3.20;;;25.10;74.30;;;;;;4785178;30;20039;-77
2023/05/07 11:28:58;;;;;;;5.15;2.30;;;25.40;78.00;;;;;;4777129;30;20531;-74
2023/05/07 11:31:30;;;;;;;3.97;2.30;;;25.20;74.80;;;;;;4768401;30;20147;-77
2023/05/07 11:33:59;;;;;;;3.42;2.22;;;25.40;74.60;;;;;;4782421;30;20034;-71
2023/05/07 11:36:31;;;;;;;7.32;2.67;;;25.50;72.10;;;;;;4773587;30;20040;-75
2023/05/07 11:38:58;;;;;;;5.90;2.28;;;25.60;72.50;;;;;;4803066;29;20050;-74
2023/05/07 11:41:42;;;;;;;3.50;1.88;;;25.30;70.90;;;;;;4800052;29;20445;-75
2023/05/07 11:44:08;;;;;;;5.80;2.25;;;25.40;71.40;;;;;;4796563;29;20517;-76
2023/05/07 11:46:34;;;;;;;4.97;2.35;;;25.40;74.20;;;;;;4780155;29;20027;-77
2023/05/07 11:49:01;;;;;;;3.20;2.08;;;25.40;72.60;;;;;;4826938;29;20033;-79
2023/05/07 11:51:27;;;;;;;3.58;2.38;;;25.40;71.50;;;;;;4910346;29;20051;-75
2023/05/07 11:53:53;;;;;;;10.18;2.38;;;25.30;71.60;;;;;;4899264;29;20459;-75
2023/05/07 11:56:19;;;;;;;2.08;1.88;;;25.50;74.00;;;;;;4896671;29;20043;-72
2023/05/07 11:58:47;;;;;;;6.20;2.35;;;25.60;71.90;;;;;;4899740;29;20020;-72
2023/05/07 12:01:14;;;;;;;4.32;2.28;;;25.50;72.30;;;;;;4900111;29;20047;-76
2023/05/07 12:03:45;;;;;;;3.55;1.80;;;25.60;74.00;;;;;;4897525;29;20036;-72
2023/05/07 12:06:13;;;;;;;2.58;1.90;;;25.70;76.70;;;;;;4897424;29;20033;-72
2023/05/07 12:08:40;;;;;;;5.00;2.22;;;25.70;72.20;;;;;;4897663;29;20111;-79
2023/05/07 12:11:13;;;;;;;3.08;1.88;;;25.70;72.60;;;;;;4897383;29;20048;-73
2023/05/07 12:13:39;;;;;;;4.97;2.10;;;25.70;71.90;;;;;;4897219;29;20033;-78
2023/05/07 12:16:06;;;;;;;2.35;1.80;;;25.80;73.50;;;;;;4898108;29;20032;-78
2023/05/07 12:18:34;;;;;;;3.13;1.92;;;25.70;71.80;;;;;;4897366;29;20032;-72
2023/05/07 12:21:00;;;;;;;3.53;2.40;;;25.80;74.90;;;;;;4888364;29;20036;-72
2023/05/07 12:23:26;;;;;;;3.45;2.53;;;25.90;72.30;;;;;;4884793;29;20032;-71
2023/05/07 12:25:52;;;;;;;2.63;2.08;;;25.60;72.70;;;;;;4870335;29;20400;-72
2023/05/07 12:28:19;;;;;;;3.13;1.85;;;25.80;73.60;;;;;;4897642;29;20048;-77
2023/05/07 12:30:47;;;;;;;2.63;1.80;;;25.70;71.60;;;;;;4898471;29;20036;-76
2023/05/07 12:33:17;;;;;;;4.53;2.28;;;25.60;71.40;;;;;;4902523;29;20119;-74
2023/05/07 12:35:44;;;;;;;4.70;2.25;;;25.60;71.70;;;;;;4916110;29;20031;-72
2023/05/07 12:38:14;;;;;;;3.97;2.15;;;25.80;71.60;;;;;;4906778;29;20046;-78
2023/05/07 12:40:42;;;;;;;3.03;2.28;;;26.00;72.60;;;;;;4897466;29;20036;-73
2023/05/07 12:43:18;;;;;;;6.65;3.03;;;26.10;73.30;;;;;;4897449;29;20380;-72
2023/05/07 12:45:46;;;;;;;2.67;2.35;;;25.70;74.30;;;;;;4892055;29;20028;-73
2023/05/07 12:48:12;;;;;;;2.65;1.80;;;25.90;74.20;;;;;;4864898;29;20131;-72
2023/05/07 12:50:38;;;;;;;3.63;2.33;;;25.70;76.10;;;;;;4896078;29;20212;-77
2023/05/07 12:53:05;;;;;;;4.30;2.38;;;25.90;72.80;;;;;;4885193;29;20560;-72